sensor_id;sensor_type;location;lat;lon;timestamp;P1;durP1;ratioP1;P2;durP2;ratioP2
21507;SDS011;10915;54.352;9.074;2023-05-29T00:19:05;16.90;;;4.47;;
21507;SDS011;10915;54.352;9.074;2023-05-29T00:21:33;17.50;;;5.00;;
21507;SDS011;10915;54.352;9.074;2023-05-29T00:23:59;16.30;;;4.03;;
21507;SDS011;10915;54.352;9.074;2023-05-29T00:26:25;16.57;;;4.80;;
21507;SDS011;10915;54.352;9.074;2023-05-29T00:28:50;15.90;;;4.60;;
21507;SDS011;10915;54.352;9.074;2023-05-29T00:31:16;14.67;;;4.23;;
21507;SDS011;10915;54.352;9.074;2023-05-29T00:33:41;16.67;;;3.80;;
21507;SDS011;10915;54.352;9.074;2023-05-29T00:36:07;24.07;;;4.93;;
21507;SDS011;10915;54.352;9.074;2023-05-29T00:38:33;20.73;;;5.33;;
21507;SDS011;10915;54.352;9.074;2023-05-29T00:40:59;21.00;;;4.20;;
21507;SDS011;10915;54.352;9.074;2023-05-29T01:06:43;17.53;;;4.40;;
21507;SDS011;10915;54.352;9.074;2023-05-29T01:09:09;18.63;;;4.47;;
21507;SDS011;10915;54.352;9.074;2023-05-29T01:17:37;22.27;;;4.97;;
21507;SDS011;10915;54.352;9.074;2023-05-29T01:20:23;15.53;;;4.33;;
21507;SDS011;10915;54.352;9.074;2023-05-29T01:26:07;15.23;;;4.40;;
21507;SDS011;10915;54.352;9.074;2023-05-29T01:28:55;19.33;;;5.07;;
21507;SDS011;10915;54.352;9.074;2023-05-29T01:31:25;24.90;;;5.70;;
21507;SDS011;10915;54.352;9.074;2023-05-29T01:33:55;20.90;;;4.70;;
21507;SDS011;10915;54.352;9.074;2023-05-29T01:36:23;17.00;;;4.83;;
21507;SDS011;10915;54.352;9.074;2023-05-29T01:38:50;18.77;;;4.70;;
21507;SDS011;10915;54.352;9.074;2023-05-29T01:41:18;22.70;;;4.80;;
21507;SDS011;10915;54.352;9.074;2023-05-29T01:43:46;20.17;;;4.63;;
21507;SDS011;10915;54.352;9.074;2023-05-29T01:46:13;12.57;;;3.10;;
21507;SDS011;10915;54.352;9.074;2023-05-29T01:48:41;11.57;;;3.90;;
21507;SDS011;10915;54.352;9.074;2023-05-29T01:51:08;13.70;;;4.13;;
21507;SDS011;10915;54.352;9.074;2023-05-29T01:53:36;13.43;;;4.03;;
21507;SDS011;10915;54.352;9.074;2023-05-29T01:56:02;19.70;;;4.17;;
21507;SDS011;10915;54.352;9.074;2023-05-29T01:58:29;16.10;;;3.83;;
21507;SDS011;10915;54.352;9.074;2023-05-29T02:00:57;13.83;;;4.17;;
21507;SDS011;10915;54.352;9.074;2023-05-29T02:03:23;15.83;;;4.30;;
21507;SDS011;10915;54.352;9.074;2023-05-29T02:05:49;15.63;;;4.33;;
21507;SDS011;10915;54.352;9.074;2023-05-29T02:08:15;17.27;;;4.20;;
21507;SDS011;10915;54.352;9.074;2023-05-29T02:10:40;13.80;;;4.03;;
21507;SDS011;10915;54.352;9.074;2023-05-29T02:13:06;15.23;;;4.43;;
21507;SDS011;10915;54.352;9.074;2023-05-29T02:15:32;12.93;;;4.27;;
21507;SDS011;10915;54.352;9.074;2023-05-29T02:17:57;14.63;;;4.03;;
21507;SDS011;10915;54.352;9.074;2023-05-29T02:20:25;12.60;;;3.17;;
21507;SDS011;10915;54.352;9.074;2023-05-29T02:22:52;13.20;;;3.23;;
21507;SDS011;10915;54.352;9.074;2023-05-29T02:25:18;13.47;;;3.93;;
21507;SDS011;10915;54.352;9.074;2023-05-29T02:27:44;9.27;;;2.97;;
21507;SDS011;10915;54.352;9.074;2023-05-29T02:30:09;8.77;;;3.37;;
21507;SDS011;10915;54.352;9.074;2023-05-29T02:32:35;8.67;;;2.23;;
21507;SDS011;10915;54.352;9.074;2023-05-29T02:35:01;8.73;;;2.60;;
21507;SDS011;10915;54.352;9.074;2023-05-29T02:37:27;12.60;;;3.13;;
21507;SDS011;10915;54.352;9.074;2023-05-29T02:39:53;11.40;;;3.13;;
21507;SDS011;10915;54.352;9.074;2023-05-29T02:42:18;12.57;;;3.30;;
21507;SDS011;10915;54.352;9.074;2023-05-29T02:44:44;9.70;;;3.40;;
21507;SDS011;10915;54.352;9.074;2023-05-29T02:47:10;12.30;;;3.47;;
21507;SDS011;10915;54.352;9.074;2023-05-29T02:49:35;15.40;;;3.40;;
21507;SDS011;10915;54.352;9.074;2023-05-29T02:52:01;12.20;;;3.10;;
21507;SDS011;10915;54.352;9.074;2023-05-29T02:54:26;14.30;;;3.77;;
21507;SDS011;10915;54.352;9.074;2023-05-29T02:56:52;13.37;;;3.57;;
21507;SDS011;10915;54.352;9.074;2023-05-29T02:59:19;15.60;;;3.90;;
21507;SDS011;10915;54.352;9.074;2023-05-29T03:01:46;14.67;;;3.63;;
21507;SDS011;10915;54.352;9.074;2023-05-29T03:04:13;12.80;;;3.80;;
21507;SDS011;10915;54.352;9.074;2023-05-29T03:06:39;12.93;;;4.07;;
21507;SDS011;10915;54.352;9.074;2023-05-29T03:09:05;11.80;;;3.50;;
21507;SDS011;10915;54.352;9.074;2023-05-29T03:11:31;10.50;;;3.50;;
21507;SDS011;10915;54.352;9.074;2023-05-29T03:13:57;11.87;;;3.93;;
21507;SDS011;10915;54.352;9.074;2023-05-29T03:16:23;14.00;;;4.27;;
21507;SDS011;10915;54.352;9.074;2023-05-29T03:18:50;11.83;;;4.20;;
21507;SDS011;10915;54.352;9.074;2023-05-29T03:21:16;8.17;;;3.03;;
21507;SDS011;10915;54.352;9.074;2023-05-29T03:23:41;9.97;;;3.03;;
21507;SDS011;10915;54.352;9.074;2023-05-29T03:26:07;12.93;;;3.60;;
21507;SDS011;10915;54.352;9.074;2023-05-29T03:28:33;17.80;;;4.20;;
21507;SDS011;10915;54.352;9.074;2023-05-29T03:30:59;11.47;;;3.73;;
21507;SDS011;10915;54.352;9.074;2023-05-29T03:33:25;11.90;;;3.87;;
21507;SDS011;10915;54.352;9.074;2023-05-29T03:35:50;15.80;;;3.80;;
21507;SDS011;10915;54.352;9.074;2023-05-29T03:38:16;12.77;;;3.33;;
21507;SDS011;10915;54.352;9.074;2023-05-29T03:40:42;11.57;;;3.57;;
21507;SDS011;10915;54.352;9.074;2023-05-29T03:43:07;13.50;;;4.37;;
21507;SDS011;10915;54.352;9.074;2023-05-29T03:45:33;10.77;;;3.50;;
21507;SDS011;10915;54.352;9.074;2023-05-29T03:47:58;10.57;;;3.30;;
21507;SDS011;10915;54.352;9.074;2023-05-29T03:50:24;9.40;;;3.03;;
21507;SDS011;10915;54.352;9.074;2023-05-29T03:52:49;14.53;;;3.87;;
21507;SDS011;10915;54.352;9.074;2023-05-29T03:55:15;11.20;;;3.47;;
21507;SDS011;10915;54.352;9.074;2023-05-29T03:57:41;11.80;;;3.03;;
21507;SDS011;10915;54.352;9.074;2023-05-29T04:00:07;10.03;;;3.50;;
21507;SDS011;10915;54.352;9.074;2023-05-29T04:02:37;12.33;;;3.70;;
21507;SDS011;10915;54.352;9.074;2023-05-29T04:05:06;10.97;;;3.70;;
21507;SDS011;10915;54.352;9.074;2023-05-29T04:07:33;9.03;;;2.67;;
21507;SDS011;10915;54.352;9.074;2023-05-29T04:10:02;11.40;;;3.10;;
21507;SDS011;10915;54.352;9.074;2023-05-29T04:12:27;10.07;;;2.80;;
21507;SDS011;10915;54.352;9.074;2023-05-29T04:14:53;8.00;;;2.47;;
21507;SDS011;10915;54.352;9.074;2023-05-29T04:17:19;9.70;;;2.73;;
21507;SDS011;10915;54.352;9.074;2023-05-29T04:19:45;10.00;;;2.97;;
21507;SDS011;10915;54.352;9.074;2023-05-29T04:22:10;11.30;;;3.27;;
21507;SDS011;10915;54.352;9.074;2023-05-29T04:24:36;10.10;;;3.60;;
21507;SDS011;10915;54.352;9.074;2023-05-29T04:27:02;11.83;;;3.93;;
21507;SDS011;10915;54.352;9.074;2023-05-29T04:29:30;11.60;;;3.80;;
21507;SDS011;10915;54.352;9.074;2023-05-29T04:31:57;9.07;;;2.67;;
21507;SDS011;10915;54.352;9.074;2023-05-29T04:34:23;8.30;;;2.83;;
21507;SDS011;10915;54.352;9.074;2023-05-29T04:36:48;7.50;;;2.80;;
21507;SDS011;10915;54.352;9.074;2023-05-29T04:39:14;7.43;;;2.20;;
21507;SDS011;10915;54.352;9.074;2023-05-29T04:41:40;9.17;;;2.90;;
21507;SDS011;10915;54.352;9.074;2023-05-29T04:44:06;8.43;;;2.83;;
21507;SDS011;10915;54.352;9.074;2023-05-29T04:46:33;8.37;;;3.03;;
21507;SDS011;10915;54.352;9.074;2023-05-29T04:48:59;8.60;;;2.57;;
21507;SDS011;10915;54.352;9.074;2023-05-29T04:51:27;8.60;;;2.73;;
21507;SDS011;10915;54.352;9.074;2023-05-29T04:53:55;10.73;;;3.23;;
21507;SDS011;10915;54.352;9.074;2023-05-29T04:56:21;9.73;;;2.77;;
21507;SDS011;10915;54.352;9.074;2023-05-29T04:58:47;9.43;;;3.20;;
21507;SDS011;10915;54.352;9.074;2023-05-29T05:01:13;14.17;;;3.73;;
21507;SDS011;10915;54.352;9.074;2023-05-29T05:03:42;13.93;;;3.87;;
21507;SDS011;10915;54.352;9.074;2023-05-29T05:06:09;9.20;;;3.40;;
21507;SDS011;10915;54.352;9.074;2023-05-29T05:08:35;9.27;;;3.30;;
21507;SDS011;10915;54.352;9.074;2023-05-29T05:11:01;10.53;;;3.30;;
21507;SDS011;10915;54.352;9.074;2023-05-29T05:13:27;12.48;;;3.88;;
21507;SDS011;10915;54.352;9.074;2023-05-29T05:15:52;11.53;;;3.60;;
21507;SDS011;10915;54.352;9.074;2023-05-29T05:18:19;13.45;;;4.60;;
21507;SDS011;10915;54.352;9.074;2023-05-29T05:20:45;10.20;;;3.70;;
21507;SDS011;10915;54.352;9.074;2023-05-29T05:23:11;11.43;;;3.97;;
21507;SDS011;10915;54.352;9.074;2023-05-29T05:25:36;20.90;;;5.30;;
21507;SDS011;10915;54.352;9.074;2023-05-29T05:28:03;17.50;;;5.37;;
21507;SDS011;10915;54.352;9.074;2023-05-29T05:30:32;23.63;;;5.00;;
21507;SDS011;10915;54.352;9.074;2023-05-29T05:32:58;13.40;;;4.53;;
21507;SDS011;10915;54.352;9.074;2023-05-29T05:35:24;16.07;;;4.73;;
21507;SDS011;10915;54.352;9.074;2023-05-29T05:37:49;17.30;;;4.80;;
21507;SDS011;10915;54.352;9.074;2023-05-29T05:40:15;16.77;;;5.13;;
21507;SDS011;10915;54.352;9.074;2023-05-29T05:42:41;16.90;;;4.70;;
21507;SDS011;10915;54.352;9.074;2023-05-29T05:45:07;19.37;;;5.43;;
21507;SDS011;10915;54.352;9.074;2023-05-29T05:47:33;21.13;;;5.17;;
21507;SDS011;10915;54.352;9.074;2023-05-29T05:49:58;17.73;;;5.00;;
21507;SDS011;10915;54.352;9.074;2023-05-29T05:52:24;18.50;;;5.40;;
21507;SDS011;10915;54.352;9.074;2023-05-29T05:54:56;18.30;;;5.80;;
21507;SDS011;10915;54.352;9.074;2023-05-29T05:57:22;18.17;;;5.10;;
21507;SDS011;10915;54.352;9.074;2023-05-29T05:59:47;20.07;;;5.67;;
21507;SDS011;10915;54.352;9.074;2023-05-29T06:02:13;21.80;;;5.47;;
21507;SDS011;10915;54.352;9.074;2023-05-29T06:04:38;23.20;;;5.67;;
21507;SDS011;10915;54.352;9.074;2023-05-29T06:07:05;24.97;;;6.40;;
21507;SDS011;10915;54.352;9.074;2023-05-29T06:09:31;25.20;;;5.37;;
21507;SDS011;10915;54.352;9.074;2023-05-29T06:11:56;19.77;;;6.33;;
21507;SDS011;10915;54.352;9.074;2023-05-29T06:14:23;28.07;;;6.97;;
21507;SDS011;10915;54.352;9.074;2023-05-29T06:16:48;25.13;;;6.40;;
21507;SDS011;10915;54.352;9.074;2023-05-29T06:19:14;24.20;;;5.33;;
21507;SDS011;10915;54.352;9.074;2023-05-29T06:21:40;24.80;;;6.17;;
21507;SDS011;10915;54.352;9.074;2023-05-29T06:24:05;28.17;;;6.17;;
21507;SDS011;10915;54.352;9.074;2023-05-29T06:26:31;19.47;;;5.30;;
21507;SDS011;10915;54.352;9.074;2023-05-29T06:28:57;20.03;;;5.33;;
21507;SDS011;10915;54.352;9.074;2023-05-29T06:31:23;20.83;;;5.10;;
21507;SDS011;10915;54.352;9.074;2023-05-29T06:33:48;22.70;;;5.83;;
21507;SDS011;10915;54.352;9.074;2023-05-29T06:36:14;20.20;;;5.43;;
21507;SDS011;10915;54.352;9.074;2023-05-29T06:38:39;22.53;;;6.33;;
21507;SDS011;10915;54.352;9.074;2023-05-29T06:41:10;23.57;;;6.37;;
21507;SDS011;10915;54.352;9.074;2023-05-29T06:43:36;21.80;;;5.97;;
21507;SDS011;10915;54.352;9.074;2023-05-29T06:46:01;23.73;;;5.80;;
21507;SDS011;10915;54.352;9.074;2023-05-29T06:48:27;22.70;;;6.00;;
21507;SDS011;10915;54.352;9.074;2023-05-29T06:50:52;21.07;;;5.83;;
21507;SDS011;10915;54.352;9.074;2023-05-29T06:53:18;23.20;;;6.23;;
21507;SDS011;10915;54.352;9.074;2023-05-29T06:55:44;19.27;;;5.10;;
21507;SDS011;10915;54.352;9.074;2023-05-29T06:58:09;24.53;;;5.67;;
21507;SDS011;10915;54.352;9.074;2023-05-29T07:00:35;30.63;;;6.50;;
21507;SDS011;10915;54.352;9.074;2023-05-29T07:03:00;19.63;;;5.47;;
21507;SDS011;10915;54.352;9.074;2023-05-29T07:05:26;16.20;;;5.13;;
21507;SDS011;10915;54.352;9.074;2023-05-29T07:07:52;24.93;;;5.73;;
21507;SDS011;10915;54.352;9.074;2023-05-29T07:10:18;22.00;;;5.27;;
21507;SDS011;10915;54.352;9.074;2023-05-29T07:12:43;22.97;;;5.07;;
21507;SDS011;10915;54.352;9.074;2023-05-29T07:15:09;21.27;;;5.77;;
21507;SDS011;10915;54.352;9.074;2023-05-29T07:17:35;22.90;;;5.30;;
21507;SDS011;10915;54.352;9.074;2023-05-29T07:20:00;19.27;;;5.23;;
21507;SDS011;10915;54.352;9.074;2023-05-29T07:22:26;20.20;;;5.10;;
21507;SDS011;10915;54.352;9.074;2023-05-29T07:24:51;17.73;;;4.83;;
21507;SDS011;10915;54.352;9.074;2023-05-29T07:27:17;22.30;;;5.23;;
21507;SDS011;10915;54.352;9.074;2023-05-29T07:29:43;22.63;;;5.73;;
21507;SDS011;10915;54.352;9.074;2023-05-29T07:32:08;15.50;;;5.00;;
21507;SDS011;10915;54.352;9.074;2023-05-29T07:34:35;18.23;;;4.80;;
21507;SDS011;10915;54.352;9.074;2023-05-29T07:37:04;20.70;;;5.50;;
21507;SDS011;10915;54.352;9.074;2023-05-29T07:39:31;18.13;;;4.40;;
21507;SDS011;10915;54.352;9.074;2023-05-29T07:41:59;18.40;;;5.37;;
21507;SDS011;10915;54.352;9.074;2023-05-29T07:44:26;17.37;;;4.43;;
21507;SDS011;10915;54.352;9.074;2023-05-29T07:46:51;16.10;;;4.80;;
21507;SDS011;10915;54.352;9.074;2023-05-29T07:49:17;17.43;;;4.77;;
21507;SDS011;10915;54.352;9.074;2023-05-29T07:51:44;12.03;;;3.90;;
21507;SDS011;10915;54.352;9.074;2023-05-29T08:12:23;22.80;;;4.87;;
21507;SDS011;10915;54.352;9.074;2023-05-29T08:14:58;17.27;;;4.27;;
21507;SDS011;10915;54.352;9.074;2023-05-29T08:17:44;18.30;;;4.90;;
21507;SDS011;10915;54.352;9.074;2023-05-29T08:20:10;16.53;;;4.47;;
21507;SDS011;10915;54.352;9.074;2023-05-29T08:22:54;15.07;;;4.20;;
21507;SDS011;10915;54.352;9.074;2023-05-29T08:25:32;16.03;;;4.60;;
21507;SDS011;10915;54.352;9.074;2023-05-29T08:27:57;19.30;;;5.70;;
21507;SDS011;10915;54.352;9.074;2023-05-29T08:30:57;11.10;;;3.50;;
21507;SDS011;10915;54.352;9.074;2023-05-29T08:36:18;15.80;;;4.10;;
21507;SDS011;10915;54.352;9.074;2023-05-29T08:38:50;17.47;;;3.90;;
21507;SDS011;10915;54.352;9.074;2023-05-29T08:41:17;19.07;;;4.43;;
21507;SDS011;10915;54.352;9.074;2023-05-29T08:43:50;16.43;;;3.60;;
21507;SDS011;10915;54.352;9.074;2023-05-29T08:46:27;15.07;;;4.30;;
21507;SDS011;10915;54.352;9.074;2023-05-29T08:49:24;16.07;;;4.00;;
21507;SDS011;10915;54.352;9.074;2023-05-29T08:55:22;15.37;;;4.43;;
21507;SDS011;10915;54.352;9.074;2023-05-29T08:57:48;23.77;;;4.47;;
21507;SDS011;10915;54.352;9.074;2023-05-29T09:00:15;19.90;;;4.13;;
21507;SDS011;10915;54.352;9.074;2023-05-29T09:02:41;18.60;;;4.20;;
21507;SDS011;10915;54.352;9.074;2023-05-29T09:05:10;12.67;;;3.67;;
21507;SDS011;10915;54.352;9.074;2023-05-29T09:07:37;16.90;;;3.67;;
21507;SDS011;10915;54.352;9.074;2023-05-29T09:10:08;15.57;;;4.50;;
21507;SDS011;10915;54.352;9.074;2023-05-29T09:12:34;13.23;;;3.67;;
21507;SDS011;10915;54.352;9.074;2023-05-29T09:15:00;15.13;;;3.80;;
21507;SDS011;10915;54.352;9.074;2023-05-29T09:17:33;21.77;;;5.17;;
21507;SDS011;10915;54.352;9.074;2023-05-29T09:19:58;14.57;;;4.00;;
21507;SDS011;10915;54.352;9.074;2023-05-29T09:22:25;13.83;;;4.30;;
21507;SDS011;10915;54.352;9.074;2023-05-29T09:24:51;20.07;;;4.87;;
21507;SDS011;10915;54.352;9.074;2023-05-29T09:27:17;18.03;;;4.20;;
21507;SDS011;10915;54.352;9.074;2023-05-29T09:29:44;16.77;;;4.97;;
21507;SDS011;10915;54.352;9.074;2023-05-29T09:32:20;16.80;;;5.10;;
21507;SDS011;10915;54.352;9.074;2023-05-29T09:34:46;15.97;;;4.17;;
21507;SDS011;10915;54.352;9.074;2023-05-29T09:37:12;16.50;;;3.40;;
21507;SDS011;10915;54.352;9.074;2023-05-29T09:42:07;17.50;;;3.73;;
21507;SDS011;10915;54.352;9.074;2023-05-29T09:44:33;15.93;;;4.32;;
21507;SDS011;10915;54.352;9.074;2023-05-29T09:46:59;14.53;;;3.83;;
21507;SDS011;10915;54.352;9.074;2023-05-29T09:49:25;14.27;;;3.77;;
21507;SDS011;10915;54.352;9.074;2023-05-29T09:51:56;17.80;;;4.13;;
21507;SDS011;10915;54.352;9.074;2023-05-29T09:57:21;13.40;;;4.07;;
21507;SDS011;10915;54.352;9.074;2023-05-29T09:59:52;15.60;;;3.87;;
21507;SDS011;10915;54.352;9.074;2023-05-29T10:02:38;18.90;;;4.07;;
21507;SDS011;10915;54.352;9.074;2023-05-29T10:05:05;13.40;;;3.83;;
21507;SDS011;10915;54.352;9.074;2023-05-29T10:07:33;17.20;;;4.47;;
21507;SDS011;10915;54.352;9.074;2023-05-29T10:10:03;12.27;;;3.70;;
21507;SDS011;10915;54.352;9.074;2023-05-29T10:12:37;16.10;;;4.03;;
21507;SDS011;10915;54.352;9.074;2023-05-29T10:15:05;13.07;;;4.07;;
21507;SDS011;10915;54.352;9.074;2023-05-29T10:17:37;19.03;;;4.43;;
21507;SDS011;10915;54.352;9.074;2023-05-29T10:20:05;17.83;;;4.43;;
21507;SDS011;10915;54.352;9.074;2023-05-29T10:22:35;12.75;;;3.75;;
21507;SDS011;10915;54.352;9.074;2023-05-29T10:25:09;19.87;;;3.93;;
21507;SDS011;10915;54.352;9.074;2023-05-29T10:27:38;18.97;;;4.00;;
21507;SDS011;10915;54.352;9.074;2023-05-29T10:30:14;13.37;;;3.90;;
21507;SDS011;10915;54.352;9.074;2023-05-29T10:38:14;14.83;;;3.67;;
21507;SDS011;10915;54.352;9.074;2023-05-29T10:40:42;17.97;;;4.43;;
21507;SDS011;10915;54.352;9.074;2023-05-29T10:43:08;15.50;;;3.53;;
21507;SDS011;10915;54.352;9.074;2023-05-29T10:53:22;17.03;;;4.87;;
21507;SDS011;10915;54.352;9.074;2023-05-29T10:55:49;17.73;;;4.33;;
21507;SDS011;10915;54.352;9.074;2023-05-29T11:00:45;12.50;;;4.00;;
21507;SDS011;10915;54.352;9.074;2023-05-29T11:03:30;15.87;;;3.93;;
21507;SDS011;10915;54.352;9.074;2023-05-29T11:08:32;16.80;;;4.07;;
21507;SDS011;10915;54.352;9.074;2023-05-29T11:10:58;15.17;;;3.87;;
21507;SDS011;10915;54.352;9.074;2023-05-29T11:13:25;15.10;;;3.63;;
21507;SDS011;10915;54.352;9.074;2023-05-29T11:16:18;16.90;;;4.20;;
21507;SDS011;10915;54.352;9.074;2023-05-29T11:18:53;15.40;;;5.03;;
21507;SDS011;10915;54.352;9.074;2023-05-29T11:24:09;16.67;;;3.87;;
21507;SDS011;10915;54.352;9.074;2023-05-29T11:26:49;13.70;;;3.90;;
21507;SDS011;10915;54.352;9.074;2023-05-29T11:29:18;16.13;;;4.50;;
21507;SDS011;10915;54.352;9.074;2023-05-29T11:32:03;17.17;;;4.07;;
21507;SDS011;10915;54.352;9.074;2023-05-29T11:34:30;21.13;;;4.90;;
21507;SDS011;10915;54.352;9.074;2023-05-29T11:36:58;16.40;;;4.45;;
21507;SDS011;10915;54.352;9.074;2023-05-29T11:39:24;14.83;;;4.30;;
21507;SDS011;10915;54.352;9.074;2023-05-29T11:41:51;16.37;;;3.63;;
21507;SDS011;10915;54.352;9.074;2023-05-29T11:44:17;16.27;;;4.72;;
21507;SDS011;10915;54.352;9.074;2023-05-29T11:46:43;14.97;;;4.17;;
21507;SDS011;10915;54.352;9.074;2023-05-29T11:49:09;19.13;;;4.40;;
21507;SDS011;10915;54.352;9.074;2023-05-29T11:51:35;15.87;;;3.90;;
21507;SDS011;10915;54.352;9.074;2023-05-29T11:54:01;16.07;;;4.17;;
21507;SDS011;10915;54.352;9.074;2023-05-29T11:56:27;12.43;;;3.73;;
21507;SDS011;10915;54.352;9.074;2023-05-29T11:58:53;12.32;;;3.45;;
21507;SDS011;10915;54.352;9.074;2023-05-29T12:01:21;15.35;;;4.13;;
21507;SDS011;10915;54.352;9.074;2023-05-29T12:03:48;18.73;;;4.68;;
21507;SDS011;10915;54.352;9.074;2023-05-29T12:06:14;14.50;;;3.83;;
21507;SDS011;10915;54.352;9.074;2023-05-29T12:08:40;13.10;;;3.63;;
21507;SDS011;10915;54.352;9.074;2023-05-29T12:11:06;17.57;;;4.70;;
21507;SDS011;10915;54.352;9.074;2023-05-29T12:13:32;14.73;;;3.53;;
21507;SDS011;10915;54.352;9.074;2023-05-29T12:15:59;14.77;;;3.80;;
21507;SDS011;10915;54.352;9.074;2023-05-29T12:18:27;18.40;;;4.10;;
21507;SDS011;10915;54.352;9.074;2023-05-29T12:21:01;14.27;;;3.37;;
21507;SDS011;10915;54.352;9.074;2023-05-29T12:23:28;15.47;;;3.67;;
21507;SDS011;10915;54.352;9.074;2023-05-29T12:25:55;16.10;;;4.00;;
21507;SDS011;10915;54.352;9.074;2023-05-29T12:28:21;16.53;;;4.03;;
21507;SDS011;10915;54.352;9.074;2023-05-29T12:30:47;15.50;;;3.92;;
21507;SDS011;10915;54.352;9.074;2023-05-29T12:36:11;18.52;;;4.40;;
21507;SDS011;10915;54.352;9.074;2023-05-29T12:39:10;17.13;;;4.20;;
21507;SDS011;10915;54.352;9.074;2023-05-29T12:41:34;16.67;;;4.13;;
21507;SDS011;10915;54.352;9.074;2023-05-29T12:44:01;15.65;;;3.90;;
21507;SDS011;10915;54.352;9.074;2023-05-29T12:46:34;14.43;;;3.67;;
21507;SDS011;10915;54.352;9.074;2023-05-29T12:49:11;15.17;;;3.03;;
21507;SDS011;10915;54.352;9.074;2023-05-29T12:51:39;15.80;;;4.03;;
21507;SDS011;10915;54.352;9.074;2023-05-29T12:54:08;17.70;;;4.30;;
21507;SDS011;10915;54.352;9.074;2023-05-29T12:56:35;10.60;;;2.90;;
21507;SDS011;10915;54.352;9.074;2023-05-29T12:59:00;15.87;;;4.00;;
21507;SDS011;10915;54.352;9.074;2023-05-29T13:01:26;18.23;;;4.00;;
21507;SDS011;10915;54.352;9.074;2023-05-29T13:03:52;16.03;;;3.67;;
21507;SDS011;10915;54.352;9.074;2023-05-29T13:06:17;16.10;;;3.70;;
21507;SDS011;10915;54.352;9.074;2023-05-29T13:08:43;14.82;;;3.67;;
21507;SDS011;10915;54.352;9.074;2023-05-29T13:11:09;13.30;;;3.40;;
21507;SDS011;10915;54.352;9.074;2023-05-29T13:13:34;13.03;;;3.47;;
21507;SDS011;10915;54.352;9.074;2023-05-29T13:16:00;14.83;;;3.27;;
21507;SDS011;10915;54.352;9.074;2023-05-29T13:18:26;12.73;;;3.03;;
21507;SDS011;10915;54.352;9.074;2023-05-29T13:20:51;12.50;;;3.67;;
21507;SDS011;10915;54.352;9.074;2023-05-29T13:23:17;12.57;;;3.40;;
21507;SDS011;10915;54.352;9.074;2023-05-29T13:25:42;10.53;;;3.10;;
21507;SDS011;10915;54.352;9.074;2023-05-29T13:28:08;10.73;;;3.30;;
21507;SDS011;10915;54.352;9.074;2023-05-29T13:30:34;11.63;;;3.00;;
21507;SDS011;10915;54.352;9.074;2023-05-29T13:32:59;10.17;;;2.70;;
21507;SDS011;10915;54.352;9.074;2023-05-29T13:35:25;13.73;;;3.10;;
21507;SDS011;10915;54.352;9.074;2023-05-29T13:37:51;10.33;;;2.60;;
21507;SDS011;10915;54.352;9.074;2023-05-29T13:40:16;11.70;;;3.27;;
21507;SDS011;10915;54.352;9.074;2023-05-29T13:42:42;11.87;;;3.03;;
21507;SDS011;10915;54.352;9.074;2023-05-29T13:45:08;11.53;;;3.03;;
21507;SDS011;10915;54.352;9.074;2023-05-29T13:47:34;9.37;;;2.30;;
21507;SDS011;10915;54.352;9.074;2023-05-29T13:50:00;9.30;;;2.60;;
21507;SDS011;10915;54.352;9.074;2023-05-29T13:52:26;12.80;;;2.93;;
21507;SDS011;10915;54.352;9.074;2023-05-29T13:54:52;11.27;;;2.93;;
21507;SDS011;10915;54.352;9.074;2023-05-29T13:57:18;9.93;;;2.80;;
21507;SDS011;10915;54.352;9.074;2023-05-29T13:59:44;10.07;;;3.00;;
21507;SDS011;10915;54.352;9.074;2023-05-29T14:02:10;11.33;;;2.83;;
21507;SDS011;10915;54.352;9.074;2023-05-29T14:04:36;12.33;;;3.10;;
21507;SDS011;10915;54.352;9.074;2023-05-29T14:07:03;10.87;;;2.93;;
21507;SDS011;10915;54.352;9.074;2023-05-29T14:09:29;9.60;;;2.50;;
21507;SDS011;10915;54.352;9.074;2023-05-29T14:11:55;7.77;;;2.50;;
21507;SDS011;10915;54.352;9.074;2023-05-29T14:14:23;8.07;;;2.80;;
21507;SDS011;10915;54.352;9.074;2023-05-29T14:16:49;8.80;;;2.50;;
21507;SDS011;10915;54.352;9.074;2023-05-29T14:19:16;8.17;;;2.73;;
21507;SDS011;10915;54.352;9.074;2023-05-29T14:21:43;11.07;;;2.77;;
21507;SDS011;10915;54.352;9.074;2023-05-29T14:24:09;10.00;;;2.83;;
21507;SDS011;10915;54.352;9.074;2023-05-29T14:26:35;11.17;;;2.63;;
21507;SDS011;10915;54.352;9.074;2023-05-29T14:29:00;9.37;;;2.40;;
21507;SDS011;10915;54.352;9.074;2023-05-29T14:31:26;14.13;;;2.80;;
21507;SDS011;10915;54.352;9.074;2023-05-29T14:33:52;9.33;;;2.90;;
21507;SDS011;10915;54.352;9.074;2023-05-29T14:36:17;7.73;;;2.57;;
21507;SDS011;10915;54.352;9.074;2023-05-29T14:38:43;14.73;;;2.67;;
21507;SDS011;10915;54.352;9.074;2023-05-29T14:41:11;12.80;;;2.63;;
21507;SDS011;10915;54.352;9.074;2023-05-29T14:43:37;7.90;;;2.73;;
21507;SDS011;10915;54.352;9.074;2023-05-29T14:46:03;11.17;;;2.83;;
21507;SDS011;10915;54.352;9.074;2023-05-29T14:48:29;13.37;;;2.73;;
21507;SDS011;10915;54.352;9.074;2023-05-29T14:50:55;13.73;;;3.23;;
21507;SDS011;10915;54.352;9.074;2023-05-29T14:53:20;11.33;;;3.03;;
21507;SDS011;10915;54.352;9.074;2023-05-29T14:55:47;8.73;;;2.67;;
21507;SDS011;10915;54.352;9.074;2023-05-29T14:58:13;8.73;;;2.53;;
21507;SDS011;10915;54.352;9.074;2023-05-29T15:00:39;11.80;;;2.70;;
21507;SDS011;10915;54.352;9.074;2023-05-29T15:03:05;11.50;;;2.90;;
21507;SDS011;10915;54.352;9.074;2023-05-29T15:05:30;7.93;;;2.17;;
21507;SDS011;10915;54.352;9.074;2023-05-29T15:07:56;12.73;;;2.80;;
21507;SDS011;10915;54.352;9.074;2023-05-29T15:10:23;9.97;;;2.70;;
21507;SDS011;10915;54.352;9.074;2023-05-29T15:12:49;10.80;;;3.20;;
21507;SDS011;10915;54.352;9.074;2023-05-29T15:15:22;9.77;;;2.97;;
21507;SDS011;10915;54.352;9.074;2023-05-29T15:17:49;14.60;;;3.13;;
21507;SDS011;10915;54.352;9.074;2023-05-29T15:20:18;9.30;;;2.70;;
21507;SDS011;10915;54.352;9.074;2023-05-29T15:22:45;11.27;;;2.50;;
21507;SDS011;10915;54.352;9.074;2023-05-29T15:25:10;11.97;;;2.97;;
21507;SDS011;10915;54.352;9.074;2023-05-29T15:27:36;13.63;;;3.30;;
21507;SDS011;10915;54.352;9.074;2023-05-29T15:30:09;13.17;;;3.10;;
21507;SDS011;10915;54.352;9.074;2023-05-29T15:32:35;8.90;;;3.13;;
21507;SDS011;10915;54.352;9.074;2023-05-29T15:35:01;11.97;;;3.50;;
21507;SDS011;10915;54.352;9.074;2023-05-29T15:37:26;14.13;;;3.33;;
21507;SDS011;10915;54.352;9.074;2023-05-29T15:39:54;10.30;;;2.73;;
21507;SDS011;10915;54.352;9.074;2023-05-29T15:42:20;13.70;;;3.60;;
21507;SDS011;10915;54.352;9.074;2023-05-29T15:44:46;14.27;;;3.10;;
21507;SDS011;10915;54.352;9.074;2023-05-29T15:47:12;15.20;;;3.23;;
21507;SDS011;10915;54.352;9.074;2023-05-29T15:49:38;14.27;;;3.60;;
21507;SDS011;10915;54.352;9.074;2023-05-29T15:52:03;19.30;;;4.13;;
21507;SDS011;10915;54.352;9.074;2023-05-29T15:54:29;15.40;;;3.40;;
21507;SDS011;10915;54.352;9.074;2023-05-29T15:56:55;16.50;;;3.60;;
21507;SDS011;10915;54.352;9.074;2023-05-29T15:59:20;15.77;;;3.93;;
21507;SDS011;10915;54.352;9.074;2023-05-29T16:01:46;15.03;;;3.03;;
21507;SDS011;10915;54.352;9.074;2023-05-29T16:04:12;14.43;;;3.10;;
21507;SDS011;10915;54.352;9.074;2023-05-29T16:06:38;14.60;;;3.57;;
21507;SDS011;10915;54.352;9.074;2023-05-29T16:09:04;16.40;;;4.00;;
21507;SDS011;10915;54.352;9.074;2023-05-29T16:11:30;11.63;;;2.90;;
21507;SDS011;10915;54.352;9.074;2023-05-29T16:13:55;12.97;;;3.33;;
21507;SDS011;10915;54.352;9.074;2023-05-29T16:16:21;13.70;;;3.30;;
21507;SDS011;10915;54.352;9.074;2023-05-29T16:18:47;15.07;;;3.70;;
21507;SDS011;10915;54.352;9.074;2023-05-29T16:21:12;15.77;;;3.80;;